createdAt,value
2022-10-27T00:03:00.750Z,9.70
2022-10-27T00:08:04.296Z,9.60
2022-10-27T00:13:08.118Z,9.50
2022-10-27T00:18:13.715Z,9.60
2022-10-27T00:23:17.050Z,9.60
2022-10-27T00:28:20.484Z,9.50
2022-10-27T00:33:25.231Z,11.00
2022-10-27T00:38:28.468Z,9.50
2022-10-27T00:43:33.619Z,9.40
2022-10-27T00:48:38.405Z,9.40
2022-10-27T00:53:41.835Z,9.50
2022-10-27T00:58:46.359Z,9.50
2022-10-27T01:03:51.264Z,9.50
2022-10-27T01:08:54.969Z,9.60
2022-10-27T01:13:58.583Z,9.60
2022-10-27T01:19:21.352Z,9.60
2022-10-27T01:24:43.770Z,9.60
2022-10-27T01:30:13.013Z,9.60
2022-10-27T01:35:25.160Z,9.40
2022-10-27T01:40:35.648Z,9.50
2022-10-27T01:45:40.742Z,9.60
2022-10-27T01:51:00.549Z,9.70
2022-10-27T01:56:28.064Z,9.60
2022-10-27T02:01:44.863Z,9.70
2022-10-27T02:06:55.171Z,9.70
2022-10-27T02:12:02.009Z,9.70
2022-10-27T02:17:07.733Z,9.90
2022-10-27T02:22:13.584Z,9.90
2022-10-27T02:27:26.083Z,9.80
2022-10-27T02:32:30.957Z,9.90
2022-10-27T02:37:37.965Z,10.00
2022-10-27T02:42:41.225Z,10.00
2022-10-27T02:47:44.515Z,10.10
2022-10-27T02:52:49.423Z,10.10
2022-10-27T02:57:52.880Z,10.10
2022-10-27T03:02:56.151Z,10.10
2022-10-27T03:08:01.173Z,13.40
2022-10-27T03:13:04.533Z,10.20
2022-10-27T03:18:07.862Z,10.10
2022-10-27T03:23:12.553Z,10.10
2022-10-27T03:28:15.827Z,10.10
2022-10-27T03:33:19.114Z,10.10
2022-10-27T03:38:23.821Z,10.10
2022-10-27T03:43:27.171Z,10.00
2022-10-27T03:48:30.515Z,10.00
2022-10-27T03:53:35.155Z,10.30
2022-10-27T03:58:38.537Z,10.10
2022-10-27T04:03:41.874Z,10.10
2022-10-27T04:08:46.526Z,10.20
2022-10-27T04:13:49.877Z,10.20
2022-10-27T04:18:53.199Z,10.20
2022-10-27T04:23:57.946Z,10.40
2022-10-27T04:29:01.186Z,10.30
2022-10-27T04:34:04.533Z,10.40
2022-10-27T04:39:14.091Z,10.30
2022-10-27T04:44:17.405Z,10.60
2022-10-27T04:49:20.802Z,10.50
2022-10-27T04:54:25.641Z,10.40
2022-10-27T04:59:29.079Z,10.40
2022-10-27T05:04:32.357Z,10.50
2022-10-27T05:09:37.008Z,10.70
2022-10-27T05:14:40.299Z,10.60
2022-10-27T05:19:43.572Z,10.70
2022-10-27T05:24:48.233Z,10.60
2022-10-27T05:29:51.496Z,10.60
2022-10-27T05:34:54.772Z,10.40
2022-10-27T05:40:00.956Z,10.30
2022-10-27T05:45:04.494Z,10.40
2022-10-27T05:50:08.528Z,10.20
2022-10-27T05:55:13.223Z,10.10
2022-10-27T06:00:18.713Z,10.30
2022-10-27T06:05:24.746Z,10.40
2022-10-27T06:10:30.053Z,10.30
2022-10-27T06:15:34.550Z,10.10
2022-10-27T06:20:38.029Z,10.10
2022-10-27T06:25:42.789Z,10.10
2022-10-27T06:30:46.445Z,10.10
2022-10-27T06:35:49.732Z,9.80
2022-10-27T06:40:54.577Z,9.90
2022-10-27T06:46:01.595Z,10.00
2022-10-27T06:51:05.397Z,10.10
2022-10-27T06:56:10.166Z,10.20
2022-10-27T07:01:13.497Z,10.30
2022-10-27T07:06:16.885Z,10.30
2022-10-27T07:11:21.575Z,10.30
2022-10-27T07:16:24.903Z,10.50
2022-10-27T07:21:28.760Z,10.60
2022-10-27T07:26:33.420Z,10.50
2022-10-27T07:31:36.840Z,10.50
2022-10-27T07:36:40.181Z,6.20
2022-10-27T07:41:44.821Z,10.70
2022-10-27T07:46:48.109Z,10.80
2022-10-27T07:51:51.377Z,10.90
2022-10-27T07:56:56.000Z,10.90
2022-10-27T08:01:59.426Z,11.10
2022-10-27T08:07:02.849Z,11.10
2022-10-27T08:12:07.807Z,11.10
2022-10-27T08:17:11.191Z,11.10
2022-10-27T08:22:14.532Z,11.20
2022-10-27T08:27:19.246Z,11.50
2022-10-27T08:32:22.505Z,11.60
2022-10-27T08:37:25.862Z,11.50
2022-10-27T08:42:40.797Z,11.50
2022-10-27T08:47:46.579Z,11.60
2022-10-27T08:52:53.808Z,11.70
2022-10-27T08:58:04.338Z,12.10
2022-10-27T09:03:30.868Z,12.10
2022-10-27T09:08:42.887Z,12.20
2022-10-27T09:14:02.598Z,12.10
2022-10-27T09:19:10.265Z,12.10
2022-10-27T09:24:15.480Z,12.20
2022-10-27T09:29:23.190Z,12.40
2022-10-27T09:34:29.900Z,12.30
2022-10-27T09:39:33.198Z,12.30
2022-10-27T09:44:38.239Z,13.10
2022-10-27T09:49:45.109Z,13.10
2022-10-27T09:54:55.596Z,13.30
2022-10-27T10:00:03.180Z,13.40
2022-10-27T10:05:21.947Z,13.30
2022-10-27T10:10:29.723Z,13.70
2022-10-27T10:15:38.842Z,14.00
2022-10-27T10:20:44.447Z,13.50
2022-10-27T10:25:49.579Z,13.70
2022-10-27T10:30:57.079Z,14.20
2022-10-27T10:36:02.900Z,14.50
2022-10-27T10:41:11.642Z,14.90
2022-10-27T10:46:23.089Z,15.00
2022-10-27T10:51:28.538Z,14.90
2022-10-27T10:56:33.366Z,15.30
2022-10-27T11:01:44.303Z,16.50
2022-10-27T11:07:04.476Z,18.70
2022-10-27T11:12:18.605Z,20.20
2022-10-27T11:17:25.465Z,21.70
2022-10-27T11:22:29.204Z,22.70
2022-10-27T11:27:39.960Z,22.90
2022-10-27T11:32:52.184Z,21.50
2022-10-27T11:38:03.509Z,21.30
2022-10-27T11:43:12.535Z,22.00
2022-10-27T11:48:23.341Z,24.50
2022-10-27T11:53:26.703Z,25.40
2022-10-27T11:58:38.547Z,24.50
2022-10-27T12:03:56.247Z,25.30
2022-10-27T12:09:12.431Z,26.20
2022-10-27T12:14:25.427Z,25.50
2022-10-27T12:19:31.653Z,25.50
2022-10-27T12:24:39.263Z,25.30
2022-10-27T12:29:48.101Z,25.60
2022-10-27T12:34:59.002Z,25.20
2022-10-27T12:40:08.365Z,24.90
2022-10-27T12:45:28.916Z,26.00
2022-10-27T12:50:45.021Z,26.10
2022-10-27T12:55:54.507Z,26.20
2022-10-27T13:01:07.690Z,26.60
2022-10-27T13:06:32.355Z,27.00
2022-10-27T13:12:04.180Z,27.10
2022-10-27T13:17:13.655Z,27.10
2022-10-27T13:22:24.357Z,26.50
2022-10-27T13:27:32.925Z,27.10
2022-10-27T13:32:53.435Z,26.90
2022-10-27T13:38:23.652Z,27.60
2022-10-27T13:43:59.913Z,27.00
2022-10-27T13:49:03.201Z,27.00
2022-10-27T13:54:39.754Z,26.70
2022-10-27T13:59:45.837Z,27.00
2022-10-27T14:04:53.819Z,27.00
2022-10-27T14:09:57.226Z,27.20
2022-10-27T14:15:06.512Z,27.50
2022-10-27T14:20:19.852Z,27.50
2022-10-27T14:25:28.908Z,26.90
2022-10-27T14:30:34.196Z,27.10
2022-10-27T14:35:37.760Z,27.00
2022-10-27T14:40:41.482Z,26.80
2022-10-27T14:45:47.176Z,26.70
2022-10-27T14:50:50.567Z,26.50
2022-10-27T14:56:05.141Z,26.70
2022-10-27T15:01:27.311Z,26.70
2022-10-27T15:06:34.553Z,26.50
2022-10-27T15:11:38.162Z,25.00
2022-10-27T15:16:47.241Z,24.00
2022-10-27T15:21:51.382Z,22.90
2022-10-27T15:26:55.543Z,21.80
2022-10-27T15:32:01.190Z,20.80
2022-10-27T15:37:26.375Z,20.00
2022-10-27T15:42:35.986Z,19.30
2022-10-27T15:47:43.800Z,18.80
2022-10-27T15:52:46.944Z,18.40
2022-10-27T15:57:50.489Z,17.80
2022-10-27T16:02:58.381Z,17.60
2022-10-27T16:08:22.378Z,17.40
2022-10-27T16:13:25.637Z,17.10
2022-10-27T16:18:30.457Z,16.70
2022-10-27T16:23:33.776Z,16.50
2022-10-27T16:28:41.910Z,16.10
2022-10-27T16:33:47.785Z,15.80
2022-10-27T16:38:51.100Z,15.50
2022-10-27T16:43:54.512Z,15.50
2022-10-27T16:48:59.258Z,15.40
2022-10-27T16:54:02.307Z,15.30
2022-10-27T16:59:05.785Z,15.00
2022-10-27T17:04:10.457Z,14.80
2022-10-27T17:09:14.651Z,14.60
2022-10-27T17:14:17.977Z,18.30
2022-10-27T17:19:22.761Z,14.30
2022-10-27T17:24:26.022Z,14.00
2022-10-27T17:29:29.340Z,13.90
2022-10-27T17:34:34.005Z,13.70
2022-10-27T17:39:37.281Z,13.60
2022-10-27T17:44:40.741Z,13.80
2022-10-27T17:49:45.617Z,13.70
2022-10-27T17:54:48.957Z,13.70
2022-10-27T17:59:52.275Z,13.70
2022-10-27T18:04:56.945Z,13.50
2022-10-27T18:10:00.254Z,13.40
2022-10-27T18:15:30.504Z,13.40
2022-10-27T18:20:29.333Z,13.30
2022-10-27T18:25:33.401Z,13.20
2022-10-27T18:30:37.043Z,13.10
2022-10-27T18:35:41.667Z,12.90
2022-10-27T18:40:45.016Z,12.80
2022-10-27T18:45:48.343Z,13.50
2022-10-27T18:50:57.090Z,12.60
2022-10-27T18:56:02.528Z,12.50
2022-10-27T19:01:06.424Z,12.50
2022-10-27T19:06:13.197Z,12.40
2022-10-27T19:11:18.246Z,12.40
2022-10-27T19:16:23.916Z,12.20
2022-10-27T19:21:29.824Z,12.10
2022-10-27T19:26:35.149Z,12.20
2022-10-27T19:31:40.636Z,15.20
2022-10-27T19:36:45.288Z,12.20
2022-10-27T19:41:50.247Z,12.40
2022-10-27T19:46:53.674Z,12.70
2022-10-27T19:51:58.518Z,16.10
2022-10-27T19:57:01.814Z,13.10
2022-10-27T20:02:05.446Z,13.40
2022-10-27T20:07:10.190Z,13.30
2022-10-27T20:12:13.584Z,13.30
2022-10-27T20:17:16.936Z,13.20
2022-10-27T20:22:21.663Z,13.20
2022-10-27T20:27:25.173Z,13.00
2022-10-27T20:32:28.530Z,13.10
2022-10-27T20:37:36.714Z,10.80
2022-10-27T20:42:40.335Z,13.20
2022-10-27T20:47:44.144Z,13.10
2022-10-27T20:52:48.833Z,13.10
2022-10-27T20:57:52.509Z,13.00
2022-10-27T21:02:56.109Z,12.90
2022-10-27T21:08:00.792Z,12.90
2022-10-27T21:13:04.384Z,12.90
2022-10-27T21:18:08.653Z,12.90
2022-10-27T21:23:13.316Z,12.90
2022-10-27T21:28:16.684Z,12.80
2022-10-27T21:33:20.014Z,12.80
2022-10-27T21:38:24.776Z,12.70
2022-10-27T21:43:28.084Z,12.70
2022-10-27T21:48:31.482Z,12.60
2022-10-27T21:53:36.254Z,12.60
2022-10-27T21:58:41.004Z,12.50
2022-10-27T22:03:44.998Z,12.50
2022-10-27T22:08:50.287Z,12.40
2022-10-27T22:13:54.093Z,12.30
2022-10-27T22:18:59.171Z,12.10
2022-10-27T22:24:04.533Z,11.90
2022-10-27T22:29:07.931Z,11.90
2022-10-27T22:34:14.449Z,11.70
2022-10-27T22:39:19.221Z,11.60
2022-10-27T22:44:22.564Z,11.40
2022-10-27T22:49:25.980Z,11.30
2022-10-27T22:54:30.859Z,11.30
2022-10-27T22:59:34.239Z,11.50
2022-10-27T23:04:37.708Z,11.50
2022-10-27T23:09:42.344Z,11.50
2022-10-27T23:14:47.631Z,11.70
2022-10-27T23:19:53.819Z,11.80
2022-10-27T23:24:58.473Z,11.80
2022-10-27T23:30:01.850Z,12.00
2022-10-27T23:35:05.532Z,11.80
2022-10-27T23:40:11.566Z,11.70
2022-10-27T23:45:15.195Z,11.70
2022-10-27T23:50:18.709Z,11.50
2022-10-27T23:55:23.474Z,10.50
